Terminal Aerodrome Forecast
Issued by NWS Binghamton, NY

Home | Current Version | Previous Version | Text Only | Print | Product List | Glossary On
Versions: 1 2 3 4 5 6 7 8 9 10 11 12 13 14 15 16 17 18 19 20 21 22 23 24
000
FTUS41 KBGM 161000 AAB
TAFBGM
TAF AMD
KBGM 161024Z 1610/1706 21006KT 5SM -SHRA BR BKN003 OVC025
     FM161300 VRB04KT P6SM -SHRA OVC015
     FM161430 32009KT P6SM BKN050
     FM162300 32007KT P6SM SCT050
     FM170100 29003KT P6SM SCT040=

USA.gov is the U.S. government's official web portal to all federal, state and local government web resources and services.